Time;durP1;ratioP1;P1;durP2;ratioP2;P2;SDS_P1;SDS_P2;PMS_P1;PMS_P2;Temp;Humidity;BMP_temperature;BMP_pressure;BME280_temperature;BME280_humidity;BME280_pressure;Samples;Min_cycle;Max_cycle;Signal;HPM_P1;HPM_P2
2023/06/11 00:02:11;;;;;;;8.43;4.85;;;;;;;16.15;65.93;97886.31;10528550;28;20055;-72
2023/06/11 00:07:34;;;;;;;14.57;5.20;;;;;;;16.14;65.36;97896.13;10528715;28;20040;-72
2023/06/11 00:12:55;;;;;;;11.18;5.22;;;;;;;16.10;65.42;97887.47;10528324;28;20390;-72
2023/06/11 00:18:16;;;;;;;8.82;4.80;;;;;;;16.11;65.15;97891.75;10528170;28;20068;-71
2023/06/11 00:23:37;;;;;;;8.50;4.70;;;;;;;16.03;65.07;97889.28;10513992;28;20477;-72
2023/06/11 00:28:58;;;;;;;8.68;5.25;;;;;;;16.00;64.82;97892.63;10499604;28;20094;-71
2023/06/11 00:34:20;;;;;;;8.43;5.25;;;;;;;15.96;64.61;97889.63;10513866;28;20055;-72
2023/06/11 00:39:40;;;;;;;7.53;4.72;;;;;;;15.87;64.43;97891.31;10526803;28;20068;-72
2023/06/11 00:45:03;;;;;;;9.95;4.55;;;;;;;15.79;64.52;97888.09;10512921;28;20040;-72
2023/06/11 00:50:24;;;;;;;10.57;4.85;;;;;;;15.72;64.29;97892.69;10512967;28;20090;-72
2023/06/11 00:55:45;;;;;;;6.22;4.40;;;;;;;15.64;64.35;97888.75;10498926;28;20055;-72
2023/06/11 01:01:06;;;;;;;7.47;4.53;;;;;;;15.58;64.33;97885.59;10498557;28;20059;-73
2023/06/11 01:06:28;;;;;;;8.32;4.47;;;;;;;15.51;64.13;97897.91;10498175;28;20473;-73
2023/06/11 01:11:53;;;;;;;9.93;4.72;;;;;;;15.43;63.87;97895.41;10512947;28;20477;-73
2023/06/11 01:17:17;;;;;;;9.77;4.60;;;;;;;15.41;63.83;97893.22;10512054;28;20072;-72
2023/06/11 01:23:00;;;;;;;8.25;4.38;;;;;;;15.35;63.70;97892.19;10512211;28;20115;-72
2023/06/11 01:28:24;;;;;;;6.22;4.15;;;;;;;15.31;63.19;97903.22;10540250;28;20055;-72
2023/06/11 01:33:45;;;;;;;7.40;4.18;;;;;;;15.27;63.14;97903.03;10497783;28;20044;-73
2023/06/11 01:39:11;;;;;;;7.85;4.10;;;;;;;15.26;62.86;97901.56;10498968;28;20044;-72
2023/06/11 01:44:47;;;;;;;6.70;3.88;;;;;;;15.25;62.96;97902.91;10512631;28;20067;-72
2023/06/11 01:50:08;;;;;;;12.25;4.82;;;;;;;15.20;62.75;97901.25;10495745;28;20064;-72
2023/06/11 01:55:30;;;;;;;7.15;4.28;;;;;;;15.15;62.53;97903.84;10511002;28;20189;-71
2023/06/11 02:00:51;;;;;;;7.97;4.30;;;;;;;15.12;62.22;97899.47;10509921;28;20051;-74
2023/06/11 02:06:11;;;;;;;6.65;4.30;;;;;;;15.11;62.42;97903.63;10524249;28;20048;-72
2023/06/11 02:11:33;;;;;;;10.38;4.50;;;;;;;15.05;62.33;97913.81;10496027;28;20075;-72
2023/06/11 02:16:53;;;;;;;10.68;4.10;;;;;;;14.97;62.24;97905.72;10510297;28;20083;-73
2023/06/11 02:22:14;;;;;;;9.27;4.70;;;;;;;14.90;62.01;97903.91;10538878;28;20064;-72
2023/06/11 02:27:35;;;;;;;7.55;4.03;;;;;;;14.86;61.94;97900.88;10482496;28;20382;-72
2023/06/11 02:32:56;;;;;;;6.43;3.58;;;;;;;14.87;61.63;97905.16;10498812;28;20493;-73
2023/06/11 02:38:18;;;;;;;6.88;4.20;;;;;;;14.86;61.67;97912.88;10496003;28;20078;-73
2023/06/11 02:43:38;;;;;;;7.03;3.78;;;;;;;14.87;61.18;97910.78;10538954;28;20040;-73
2023/06/11 02:48:59;;;;;;;9.55;4.95;;;;;;;14.85;60.99;97913.47;10495359;28;20469;-72
2023/06/11 02:54:20;;;;;;;5.97;3.58;;;;;;;14.83;60.71;97924.63;10495359;28;20069;-73
2023/06/11 02:59:40;;;;;;;12.52;4.32;;;;;;;14.80;60.83;97928.66;10495293;28;20076;-72
2023/06/11 03:05:02;;;;;;;8.65;3.80;;;;;;;14.78;60.78;97934.19;10566803;28;20058;-73
2023/06/11 03:10:27;;;;;;;5.45;3.60;;;;;;;14.84;60.47;97931.69;10559217;28;20067;-72
2023/06/11 03:15:48;;;;;;;6.90;4.40;;;;;;;14.93;59.98;97938.47;10559915;28;20051;-71
2023/06/11 03:21:10;;;;;;;8.95;3.97;;;;;;;15.00;59.79;97943.81;10544727;28;20067;-71
2023/06/11 03:26:31;;;;;;;6.78;3.78;;;;;;;15.08;59.78;97938.63;10544295;28;20035;-72
2023/06/11 03:31:51;;;;;;;8.68;3.88;;;;;;;15.14;59.66;97941.00;10558148;28;20043;-72
2023/06/11 03:37:15;;;;;;;10.32;4.40;;;;;;;15.17;59.63;97948.94;10572319;28;20047;-72
2023/06/11 03:42:37;;;;;;;6.25;4.00;;;;;;;15.20;59.13;97949.03;10571882;28;20044;-72
2023/06/11 03:47:58;;;;;;;10.38;4.43;;;;;;;15.28;59.03;97953.00;10529387;28;20067;-73
2023/06/11 03:53:20;;;;;;;8.00;4.00;;;;;;;15.40;58.96;97952.91;10557007;28;20078;-72
2023/06/11 03:58:41;;;;;;;5.90;3.47;;;;;;;15.56;58.92;97956.56;10557043;28;20081;-73
2023/06/11 04:04:02;;;;;;;6.15;3.80;;;;;;;15.72;58.56;97962.31;10549751;28;20060;-74
2023/06/11 04:09:25;;;;;;;5.68;3.38;;;;;;;15.88;58.11;97965.94;10501291;28;20098;-73
2023/06/11 04:14:47;;;;;;;8.10;3.60;;;;;;;16.02;57.67;97971.56;10513335;28;20047;-74
2023/06/11 04:20:08;;;;;;;6.38;3.70;;;;;;;16.20;57.49;97989.34;10514103;28;20477;-71
2023/06/11 04:25:33;;;;;;;4.95;3.38;;;;;;;16.36;56.97;97980.25;10499946;28;20036;-72
2023/06/11 04:30:57;;;;;;;6.30;3.75;;;;;;;16.50;56.34;97980.91;10514128;28;20441;-73
2023/06/11 04:36:24;;;;;;;6.82;3.58;;;;;;;16.62;55.69;97983.59;10505345;28;20044;-74
2023/06/11 04:41:47;;;;;;;5.18;3.42;;;;;;;16.85;54.82;97984.03;10568580;28;20503;-74
2023/06/11 04:47:08;;;;;;;8.90;4.03;;;;;;;17.05;53.47;97989.16;10555242;28;20043;-73
2023/06/11 04:52:32;;;;;;;9.32;3.50;;;;;;;17.33;53.10;97984.09;10542010;28;20058;-73
2023/06/11 04:57:54;;;;;;;5.20;3.45;;;;;;;17.54;51.81;97988.53;10541010;28;20044;-74
2023/06/11 05:03:18;;;;;;;6.80;3.20;;;;;;;17.75;50.91;97988.06;10545255;28;20075;-73
2023/06/11 05:08:39;;;;;;;11.02;4.40;;;;;;;18.14;49.84;97987.59;10498487;28;20050;-75
2023/06/11 05:14:01;;;;;;;8.02;3.35;;;;;;;18.52;49.53;97996.22;10512488;28;20044;-75
2023/06/11 05:19:22;;;;;;;5.95;3.50;;;;;;;18.93;48.45;97998.59;10512165;28;20044;-73
2023/06/11 05:24:43;;;;;;;7.28;3.88;;;;;;;19.27;47.25;98004.09;10525897;28;20044;-73
2023/06/11 05:30:05;;;;;;;6.97;3.22;;;;;;;19.65;46.29;98004.81;10512008;28;20055;-74
2023/06/11 05:35:26;;;;;;;8.13;3.83;;;;;;;20.06;44.83;98012.63;10470222;28;20098;-75
2023/06/11 05:40:49;;;;;;;4.75;3.40;;;;;;;20.29;44.30;98009.19;10456869;28;20056;-73
2023/06/11 05:46:10;;;;;;;7.35;4.10;;;;;;;20.55;44.33;98014.28;10469500;28;20041;-75
2023/06/11 05:51:32;;;;;;;8.00;3.80;;;;;;;20.79;43.94;98023.59;10469756;28;20045;-72
2023/06/11 05:56:56;;;;;;;8.10;4.80;;;;;;;21.20;43.60;98030.53;10470415;28;20045;-71
2023/06/11 06:02:18;;;;;;;8.57;4.13;;;;;;;21.58;43.81;98035.91;10468243;28;20059;-71
2023/06/11 06:07:40;;;;;;;5.20;4.33;;;;;;;21.74;43.91;98032.81;10469560;28;20050;-71
2023/06/11 06:13:01;;;;;;;8.70;4.72;;;;;;;21.62;44.41;98036.78;10468233;28;20052;-71
2023/06/11 06:18:23;;;;;;;6.88;4.10;;;;;;;21.61;45.08;98040.97;10468869;28;20040;-72
2023/06/11 06:23:44;;;;;;;8.43;4.68;;;;;;;22.08;44.91;98050.13;10482563;28;20043;-76
2023/06/11 06:29:08;;;;;;;7.78;4.35;;;;;;;22.73;44.22;98049.66;10468797;28;20402;-77
2023/06/11 06:34:30;;;;;;;7.32;4.30;;;;;;;23.12;42.98;98054.19;10482713;28;20111;-76
2023/06/11 06:39:52;;;;;;;6.97;3.80;;;;;;;23.36;42.88;98047.59;10476815;28;20044;-77
2023/06/11 06:45:14;;;;;;;4.78;3.90;;;;;;;23.57;42.10;98058.03;10490794;28;20271;-77
2023/06/11 06:50:36;;;;;;;4.90;3.72;;;;;;;23.65;42.10;98066.75;10476308;28;20063;-76
2023/06/11 06:55:59;;;;;;;4.18;3.35;;;;;;;23.14;42.31;98056.34;10476080;28;20040;-76
2023/06/11 07:01:22;;;;;;;4.90;4.00;;;;;;;23.95;41.96;98058.09;10482133;28;20366;-77
2023/06/11 07:06:44;;;;;;;8.20;3.90;;;;;;;23.93;41.27;98063.03;10551686;28;20039;-77
2023/06/11 07:12:06;;;;;;;4.15;3.28;;;;;;;23.72;41.15;98064.75;10524760;28;20505;-77
2023/06/11 07:17:28;;;;;;;6.13;3.63;;;;;;;23.66;41.29;98053.97;10505902;28;20055;-75
2023/06/11 07:22:50;;;;;;;4.70;3.65;;;;;;;24.24;40.36;98056.53;10517151;28;20036;-76
2023/06/11 07:28:12;;;;;;;4.17;3.33;;;;;;;24.54;39.95;98058.50;10516572;28;20043;-76
2023/06/11 07:33:33;;;;;;;5.32;4.10;;;;;;;24.46;39.47;98064.78;10502538;28;20367;-76
2023/06/11 07:38:54;;;;;;;6.35;4.10;;;;;;;24.08;40.37;98053.34;10515962;28;20044;-75
2023/06/11 07:44:15;;;;;;;9.40;3.95;;;;;;;24.45;40.94;98062.63;10502122;28;20036;-76
2023/06/11 07:49:37;;;;;;;4.80;3.10;;;;;;;25.44;39.44;98054.91;10528431;28;20484;-76
2023/06/11 07:54:58;;;;;;;4.72;3.40;;;;;;;25.56;38.42;98057.19;10515276;28;20090;-76
2023/06/11 08:00:22;;;;;;;6.05;3.55;;;;;;;25.86;38.09;98062.59;10502670;28;20052;-77
2023/06/11 08:05:43;;;;;;;6.97;3.70;;;;;;;26.06;37.19;98056.44;10528909;28;20052;-77
2023/06/11 08:11:04;;;;;;;5.13;3.42;;;;;;;26.33;37.05;98055.28;10514102;28;20063;-76
2023/06/11 08:16:25;;;;;;;5.38;3.15;;;;;;;26.58;36.61;98055.53;10543486;28;20047;-77
2023/06/11 08:21:47;;;;;;;6.60;3.95;;;;;;;26.13;36.93;98066.50;10514905;28;20044;-77
2023/06/11 08:27:09;;;;;;;5.13;3.70;;;;;;;25.34;38.91;98057.63;10528360;28;20040;-77
2023/06/11 08:32:30;;;;;;;6.63;3.80;;;;;;;25.92;38.95;98060.56;10527245;28;20036;-77
2023/06/11 08:37:52;;;;;;;6.65;3.47;;;;;;;26.72;37.39;98059.22;10481629;28;20051;-76
2023/06/11 08:43:13;;;;;;;5.07;3.58;;;;;;;27.09;36.46;98043.09;10510443;28;20040;-76
2023/06/11 08:48:35;;;;;;;5.05;3.58;;;;;;;27.03;36.57;98034.47;10510187;28;20105;-77
2023/06/11 08:53:56;;;;;;;3.85;3.40;;;;;;;27.00;36.52;98032.97;10511278;28;20041;-76
2023/06/11 08:59:19;;;;;;;4.60;3.47;;;;;;;27.86;34.98;98048.53;10512776;28;20075;-75
2023/06/11 09:04:43;;;;;;;4.57;3.30;;;;;;;27.93;34.48;98034.94;10531024;28;20054;-76
2023/06/11 09:10:08;;;;;;;7.32;3.80;;;;;;;27.71;34.06;98034.84;10555280;28;20054;-74
2023/06/11 09:15:30;;;;;;;5.65;3.35;;;;;;;28.34;33.21;98041.50;10541088;28;20043;-76
2023/06/11 09:20:53;;;;;;;6.28;3.28;;;;;;;27.83;33.66;98040.63;10553981;28;20070;-76
2023/06/11 09:26:18;;;;;;;5.68;3.00;;;;;;;27.67;33.98;98056.34;10553872;28;20553;-77
2023/06/11 09:31:39;;;;;;;5.15;2.90;;;;;;;27.32;33.29;98046.81;10540022;28;20097;-75
2023/06/11 09:37:02;;;;;;;5.88;3.15;;;;;;;27.10;34.07;98055.97;10552658;28;20497;-76
2023/06/11 09:42:26;;;;;;;3.95;3.20;;;;;;;27.27;34.28;98044.63;10511861;28;20048;-77
2023/06/11 09:47:51;;;;;;;5.32;3.10;;;;;;;27.13;34.17;98053.88;10525615;28;20068;-75
2023/06/11 09:53:12;;;;;;;4.40;3.00;;;;;;;26.86;34.59;98052.91;10550129;28;20048;-76
2023/06/11 09:58:33;;;;;;;4.40;3.50;;;;;;;26.67;35.95;98051.31;10552708;28;20044;-77
2023/06/11 10:03:54;;;;;;;3.00;2.70;;;;;;;26.52;35.83;98054.06;10528772;28;20056;-77
2023/06/11 10:09:15;;;;;;;3.50;2.83;;;;;;;26.53;35.33;98049.75;10496181;28;20040;-77
2023/06/11 10:14:39;;;;;;;6.03;3.28;;;;;;;27.38;35.07;98066.91;10524397;28;20047;-76
2023/06/11 10:20:01;;;;;;;6.60;2.88;;;;;;;27.14;33.81;98049.56;10511529;28;20044;-77
2023/06/11 10:25:31;;;;;;;6.00;2.90;;;;;;;27.06;33.27;98053.09;10524396;28;20405;-76
2023/06/11 10:30:53;;;;;;;7.80;2.67;;;;;;;26.70;33.76;98047.06;10481309;28;20382;-77
2023/06/11 10:36:24;;;;;;;3.50;2.58;;;;;;;26.63;32.68;98059.88;10510258;28;20044;-76
2023/06/11 10:41:45;;;;;;;3.97;2.13;;;;;;;27.10;31.60;98050.25;10495898;28;20060;-76
2023/06/11 10:47:06;;;;;;;2.70;2.33;;;;;;;27.39;30.84;98059.75;10523914;28;20036;-76
2023/06/11 10:52:27;;;;;;;3.45;2.55;;;;;;;26.86;30.59;98055.78;10496062;28;20044;-76
2023/06/11 10:57:57;;;;;;;3.58;2.38;;;;;;;26.28;31.26;98056.66;10509629;28;20146;-75
2023/06/11 11:03:21;;;;;;;3.15;2.25;;;;;;;26.75;30.42;98060.72;10509475;28;20093;-76
2023/06/11 11:08:43;;;;;;;3.50;2.47;;;;;;;27.60;30.06;98063.47;10523549;28;20119;-75
2023/06/11 11:14:03;;;;;;;3.58;2.58;;;;;;;27.19;30.35;98064.63;10503790;28;20047;-75
2023/06/11 11:19:24;;;;;;;5.38;2.55;;;;;;;27.12;30.68;98061.03;10523172;28;20449;-75
2023/06/11 11:24:45;;;;;;;3.50;2.57;;;;;;;26.20;31.25;98057.28;10520539;28;20078;-75
2023/06/11 11:30:07;;;;;;;2.95;2.50;;;;;;;26.34;30.36;98059.56;10540365;28;20036;-76
2023/06/11 11:35:28;;;;;;;4.47;2.42;;;;;;;26.15;30.72;98060.78;10534571;28;20036;-76
2023/06/11 11:40:56;;;;;;;3.33;2.40;;;;;;;26.26;30.17;98056.66;10537427;28;20505;-76
2023/06/11 11:46:20;;;;;;;6.38;2.50;;;;;;;25.46;29.80;98062.78;10538182;28;20040;-76
2023/06/11 11:51:45;;;;;;;4.10;2.28;;;;;;;25.86;29.50;98069.03;10526039;28;20142;-77
2023/06/11 11:57:08;;;;;;;3.88;2.47;;;;;;;26.24;28.90;98056.59;10535125;28;20043;-75
2023/06/11 12:02:30;;;;;;;4.13;2.35;;;;;;;26.93;28.30;98047.97;10546453;28;20047;-76
2023/06/11 12:07:52;;;;;;;4.78;2.30;;;;;;;26.93;27.96;98048.69;10547241;28;20495;-76
2023/06/11 12:13:13;;;;;;;4.37;2.60;;;;;;;27.01;28.02;98060.19;10539649;28;20122;-76
2023/06/11 12:18:35;;;;;;;3.20;2.35;;;;;;;26.18;29.21;98042.97;10534184;28;20047;-76
2023/06/11 12:23:56;;;;;;;4.10;2.50;;;;;;;26.51;29.47;98046.16;10525712;28;20097;-76
2023/06/11 12:29:17;;;;;;;4.32;2.25;;;;;;;26.29;29.57;98037.34;10539697;28;20040;-76
2023/06/11 12:34:38;;;;;;;4.50;2.95;;;;;;;26.61;29.56;98026.22;10509683;28;20122;-76
2023/06/11 12:40:00;;;;;;;3.83;2.85;;;;;;;26.39;30.22;98031.75;10534501;28;20067;-75
2023/06/11 12:45:25;;;;;;;5.95;2.83;;;;;;;26.46;28.89;98022.53;10544353;28;20423;-75
2023/06/11 12:50:47;;;;;;;4.32;2.80;;;;;;;26.75;28.82;97999.88;10507953;28;20039;-76
2023/06/11 12:56:08;;;;;;;4.67;2.67;;;;;;;26.96;28.79;98010.03;10529922;28;20036;-76
2023/06/11 13:01:29;;;;;;;5.38;2.90;;;;;;;26.55;29.44;98011.88;10566581;28;20058;-74
2023/06/11 13:06:50;;;;;;;4.22;3.03;;;;;;;26.52;28.93;98005.41;10560258;28;20040;-77
2023/06/11 13:12:12;;;;;;;5.03;3.00;;;;;;;26.50;29.09;97999.66;10524483;28;20040;-77
2023/06/11 13:17:33;;;;;;;9.05;2.95;;;;;;;26.62;29.56;97998.31;10527525;28;20073;-76
2023/06/11 13:22:55;;;;;;;6.63;3.67;;;;;;;26.90;28.77;97981.34;10550940;28;20047;-75
2023/06/11 13:28:16;;;;;;;7.82;3.47;;;;;;;25.91;29.81;98007.66;10538012;28;20378;-77
2023/06/11 13:33:43;;;;;;;4.15;2.90;;;;;;;25.85;30.32;97999.00;10545251;28;20036;-77
2023/06/11 13:39:06;;;;;;;4.93;3.35;;;;;;;26.27;29.39;97991.56;10533003;28;20047;-76
2023/06/11 13:44:27;;;;;;;;;;;;;;;25.28;29.15;97992.53;10516849;28;20036;-76
2023/06/11 13:49:48;;;;;;;6.28;3.67;;;;;;;25.48;30.23;97977.81;10536533;28;19976;-77
2023/06/11 13:55:09;;;;;;;4.18;3.20;;;;;;;25.64;29.73;97974.44;10536168;28;20038;-77
2023/06/11 14:00:30;;;;;;;4.50;3.17;;;;;;;25.61;30.06;97972.97;10522715;28;20040;-76
2023/06/11 14:05:52;;;;;;;4.70;3.05;;;;;;;25.75;29.46;97987.44;10537826;28;20044;-76
2023/06/11 14:11:16;;;;;;;5.15;2.78;;;;;;;25.45;28.67;97984.19;10552266;28;20156;-76
2023/06/11 14:16:37;;;;;;;5.53;3.20;;;;;;;24.90;28.16;97994.84;10552688;28;20047;-76
2023/06/11 14:21:58;;;;;;;3.95;3.42;;;;;;;24.92;29.00;97989.19;10554074;28;20042;-76
2023/06/11 14:27:19;;;;;;;5.72;3.30;;;;;;;25.45;29.06;97981.34;10522873;28;20044;-76
2023/06/11 14:32:40;;;;;;;4.72;3.05;;;;;;;25.97;28.39;97978.41;10496385;28;20094;-74
2023/06/11 14:38:01;;;;;;;6.27;3.07;;;;;;;25.34;29.82;97986.22;10524340;28;20075;-75
2023/06/11 14:43:24;;;;;;;4.78;3.10;;;;;;;24.81;30.04;97974.75;10509867;28;20052;-78
2023/06/11 14:48:45;;;;;;;6.07;3.50;;;;;;;24.92;30.36;97972.03;10523761;28;20040;-72
2023/06/11 14:54:06;;;;;;;3.50;2.92;;;;;;;24.92;30.27;97963.47;10509699;28;20362;-70
2023/06/11 14:59:28;;;;;;;4.70;3.10;;;;;;;24.96;30.54;97960.66;10533766;28;20051;-71
2023/06/11 15:04:48;;;;;;;3.80;3.40;;;;;;;24.97;30.64;97956.41;10531025;28;20131;-71
2023/06/11 15:10:10;;;;;;;8.02;3.83;;;;;;;25.16;30.24;97957.41;10531437;28;20043;-70
2023/06/11 15:15:32;;;;;;;8.17;3.50;;;;;;;24.97;30.05;97959.97;10531413;28;20040;-70
2023/06/11 15:20:53;;;;;;;5.93;3.72;;;;;;;24.66;30.73;97944.53;10516995;28;20474;-71
2023/06/11 15:26:14;;;;;;;6.60;3.25;;;;;;;24.50;31.36;97947.13;10530657;28;20044;-71
2023/06/11 15:31:35;;;;;;;6.80;3.30;;;;;;;24.89;31.60;97942.00;10530338;28;20485;-71
2023/06/11 15:36:58;;;;;;;6.38;3.15;;;;;;;24.95;31.05;97937.09;10514034;28;20052;-71
2023/06/11 15:42:18;;;;;;;3.40;2.97;;;;;;;24.78;31.68;97939.00;10516079;28;20074;-72
2023/06/11 15:47:40;;;;;;;3.85;2.90;;;;;;;24.64;32.09;97927.41;10529989;28;20062;-71
2023/06/11 15:53:01;;;;;;;5.75;3.25;;;;;;;25.01;31.73;97922.22;10504320;28;20107;-71
2023/06/11 15:58:23;;;;;;;4.88;3.20;;;;;;;25.25;31.58;97936.81;10557405;28;20408;-71
2023/06/11 16:03:44;;;;;;;5.68;3.50;;;;;;;24.87;32.24;97933.41;10571300;28;20126;-71
2023/06/11 16:09:05;;;;;;;5.63;2.88;;;;;;;24.41;32.80;97932.03;10541784;28;20477;-71
2023/06/11 16:14:26;;;;;;;3.88;2.75;;;;;;;24.37;32.86;97922.69;10556764;28;20093;-71
2023/06/11 16:19:47;;;;;;;4.07;3.13;;;;;;;24.38;33.07;97924.84;10570722;28;20445;-71
2023/06/11 16:25:08;;;;;;;3.83;2.85;;;;;;;24.36;33.21;97921.25;10570403;28;20126;-70
2023/06/11 16:30:29;;;;;;;6.05;3.20;;;;;;;24.40;33.67;97930.59;10555879;28;20503;-71
2023/06/11 16:35:50;;;;;;;6.15;2.95;;;;;;;23.95;33.31;97935.53;10541654;28;20046;-70
2023/06/11 16:41:12;;;;;;;7.32;3.20;;;;;;;23.76;33.60;97930.91;10556286;28;20071;-71
2023/06/11 16:46:33;;;;;;;6.18;3.35;;;;;;;23.76;33.88;97930.19;10569421;28;20071;-71
2023/06/11 16:51:56;;;;;;;5.22;3.33;;;;;;;23.74;33.53;97932.97;10541403;28;20050;-73
2023/06/11 16:57:18;;;;;;;4.78;3.42;;;;;;;23.56;33.59;97931.22;10554800;28;20067;-72
2023/06/11 17:02:40;;;;;;;6.50;3.75;;;;;;;23.27;34.13;97932.06;10568855;28;20047;-74
2023/06/11 17:08:02;;;;;;;5.33;2.90;;;;;;;23.10;34.54;97928.88;10554759;28;20123;-72
2023/06/11 17:13:23;;;;;;;4.93;3.78;;;;;;;22.99;34.33;97927.22;10554448;28;20119;-71
2023/06/11 17:18:44;;;;;;;5.88;3.55;;;;;;;22.95;34.49;97921.41;10537110;28;20047;-72
2023/06/11 17:24:05;;;;;;;5.68;3.33;;;;;;;22.93;34.31;97924.22;10568059;28;20096;-75
2023/06/11 17:29:27;;;;;;;5.97;3.67;;;;;;;22.78;34.41;97916.75;10553602;28;20047;-73
2023/06/11 17:34:48;;;;;;;7.28;3.78;;;;;;;22.65;34.06;97932.81;10553773;28;20051;-73
2023/06/11 17:40:10;;;;;;;6.25;4.10;;;;;;;22.54;34.08;97929.03;10553573;28;20049;-75
2023/06/11 17:45:36;;;;;;;6.07;3.47;;;;;;;22.46;34.08;97931.66;10540812;28;20597;-74
2023/06/11 17:50:57;;;;;;;5.70;3.65;;;;;;;22.37;34.24;97941.41;10552930;28;20116;-77
2023/06/11 17:56:18;;;;;;;6.22;3.67;;;;;;;22.16;34.62;97930.94;10552976;28;20040;-73
2023/06/11 18:01:39;;;;;;;6.68;3.72;;;;;;;22.10;34.89;97936.47;10552417;28;20071;-75
2023/06/11 18:07:01;;;;;;;7.07;4.15;;;;;;;21.97;35.26;97944.66;10566857;28;20039;-76
2023/06/11 18:12:21;;;;;;;5.78;3.80;;;;;;;21.93;36.24;97949.53;10552262;28;20405;-75
2023/06/11 18:17:42;;;;;;;7.38;3.90;;;;;;;21.72;37.09;97942.59;10552265;28;20036;-74
2023/06/11 18:23:03;;;;;;;6.72;3.92;;;;;;;21.52;38.11;97948.44;10552515;28;20100;-71
2023/06/11 18:28:24;;;;;;;5.45;3.78;;;;;;;21.37;38.28;97949.44;10538087;28;20040;-72
2023/06/11 18:33:46;;;;;;;7.43;4.13;;;;;;;21.25;38.89;97949.78;10571824;28;20473;-71
2023/06/11 18:39:07;;;;;;;10.50;3.72;;;;;;;21.11;39.06;97941.56;10560794;28;20489;-71
2023/06/11 18:44:28;;;;;;;4.35;3.35;;;;;;;20.98;39.53;97950.41;10574588;28;20141;-71
2023/06/11 18:49:49;;;;;;;5.43;3.83;;;;;;;20.82;40.10;97945.66;10559966;28;20045;-70
2023/06/11 18:55:13;;;;;;;4.97;3.78;;;;;;;20.72;40.46;97962.38;10574073;28;20111;-70
2023/06/11 19:00:35;;;;;;;5.53;3.88;;;;;;;20.54;40.84;97967.47;10589228;28;20089;-70
2023/06/11 19:05:56;;;;;;;5.50;3.67;;;;;;;20.42;40.97;97967.78;10573725;28;20044;-71
2023/06/11 19:11:17;;;;;;;6.18;3.70;;;;;;;20.25;41.49;97982.81;10588654;28;20401;-71
2023/06/11 19:16:38;;;;;;;9.27;3.80;;;;;;;20.11;41.37;97968.91;10568017;28;20114;-71
2023/06/11 19:21:59;;;;;;;5.10;3.42;;;;;;;20.03;41.27;97991.28;10510628;28;20490;-70
2023/06/11 19:27:21;;;;;;;5.22;3.47;;;;;;;19.93;41.00;97988.09;10530684;28;20040;-72
2023/06/11 19:32:42;;;;;;;6.80;3.30;;;;;;;19.81;41.06;97988.41;10516759;28;20040;-71
2023/06/11 19:38:04;;;;;;;9.23;3.72;;;;;;;19.66;41.20;97989.28;10516493;28;20491;-69
2023/06/11 19:43:25;;;;;;;7.78;3.50;;;;;;;19.56;41.97;98003.78;10516039;28;20051;-69
2023/06/11 19:48:46;;;;;;;7.47;3.50;;;;;;;19.50;41.72;98002.84;10543329;28;20508;-68
2023/06/11 19:54:07;;;;;;;8.98;4.07;;;;;;;19.38;42.17;98017.25;10501598;28;20050;-70
2023/06/11 19:59:30;;;;;;;6.03;3.30;;;;;;;19.26;42.03;98011.13;10529645;28;20047;-69
2023/06/11 20:04:51;;;;;;;7.65;3.63;;;;;;;19.17;42.52;98024.97;10529515;28;20102;-69
2023/06/11 20:10:12;;;;;;;4.40;3.50;;;;;;;19.09;42.31;98024.66;10529158;28;20040;-69
2023/06/11 20:15:34;;;;;;;7.85;3.10;;;;;;;18.99;42.47;98029.94;10515378;28;20048;-69
2023/06/11 20:20:54;;;;;;;8.65;3.38;;;;;;;18.85;42.74;98029.38;10528759;28;20048;-70
2023/06/11 20:26:15;;;;;;;5.72;2.78;;;;;;;18.81;42.73;98029.22;10540859;28;20043;-69
2023/06/11 20:31:36;;;;;;;5.55;3.28;;;;;;;18.70;42.86;98019.59;10570250;28;20122;-69
2023/06/11 20:36:56;;;;;;;4.28;3.22;;;;;;;18.62;43.00;98024.88;10556144;28;20044;-70
2023/06/11 20:42:17;;;;;;;5.35;3.20;;;;;;;18.51;43.08;98031.50;10541827;28;20044;-70
2023/06/11 20:47:38;;;;;;;8.95;3.78;;;;;;;18.44;43.09;98019.25;10569886;28;20044;-69
2023/06/11 20:53:00;;;;;;;5.22;3.05;;;;;;;18.32;43.14;98018.72;10569777;28;20067;-70
2023/06/11 20:58:21;;;;;;;4.53;2.90;;;;;;;18.23;42.96;98014.09;10544361;28;20117;-70
2023/06/11 21:03:41;;;;;;;5.20;2.78;;;;;;;18.22;42.70;98013.38;10525312;28;20087;-70
2023/06/11 21:09:02;;;;;;;7.22;2.95;;;;;;;18.24;42.43;98013.47;10544776;28;20063;-70
2023/06/11 21:14:26;;;;;;;4.15;2.90;;;;;;;18.15;42.32;98017.34;10568258;28;20071;-70
2023/06/11 21:19:46;;;;;;;5.72;2.88;;;;;;;18.16;42.10;98010.31;10545485;28;20100;-70
2023/06/11 21:25:08;;;;;;;5.40;3.72;;;;;;;18.09;42.19;98013.53;10531106;28;20409;-70
2023/06/11 21:30:29;;;;;;;4.45;2.90;;;;;;;17.96;42.58;98007.38;10530544;28;20434;-69
2023/06/11 21:35:49;;;;;;;4.60;3.22;;;;;;;17.89;43.00;98013.38;10565947;28;20047;-70
2023/06/11 21:41:10;;;;;;;5.28;3.25;;;;;;;17.88;42.84;98011.94;10582892;28;20048;-70
2023/06/11 21:46:31;;;;;;;5.20;2.80;;;;;;;17.78;43.30;98017.88;10567386;28;20041;-70
2023/06/11 21:51:53;;;;;;;6.55;3.03;;;;;;;17.78;43.09;98026.34;10567337;28;20040;-69
2023/06/11 21:57:14;;;;;;;9.00;3.17;;;;;;;17.74;42.93;98009.22;10552963;28;20067;-69
2023/06/11 22:02:35;;;;;;;5.93;3.00;;;;;;;17.69;43.13;98007.56;10520380;28;20063;-70
2023/06/11 22:07:57;;;;;;;5.32;3.10;;;;;;;17.60;43.64;98005.75;10489625;28;20047;-69
2023/06/11 22:13:18;;;;;;;4.22;2.90;;;;;;;17.56;43.44;98014.03;10490713;28;20040;-68
2023/06/11 22:18:43;;;;;;;6.50;2.85;;;;;;;17.42;43.74;98016.94;10499230;28;20094;-71
2023/06/11 22:24:05;;;;;;;7.88;3.33;;;;;;;17.35;44.01;98010.28;10491406;28;20064;-69
2023/06/11 22:29:26;;;;;;;5.15;3.03;;;;;;;17.24;44.46;98008.38;10517679;28;20085;-70
2023/06/11 22:34:46;;;;;;;6.03;3.35;;;;;;;17.19;44.62;98006.75;10501585;28;20074;-69
2023/06/11 22:40:08;;;;;;;6.15;3.25;;;;;;;17.14;44.85;98016.38;10488562;28;20075;-69
2023/06/11 22:45:29;;;;;;;6.20;3.33;;;;;;;17.04;44.94;98018.72;10502887;28;20077;-69
2023/06/11 22:50:50;;;;;;;6.75;3.17;;;;;;;16.94;45.05;98009.81;10508299;28;20036;-70
2023/06/11 22:56:11;;;;;;;6.28;3.25;;;;;;;16.80;45.43;98002.16;10539169;28;20430;-69
2023/06/11 23:01:32;;;;;;;4.45;3.30;;;;;;;16.77;45.58;98005.47;10529482;28;20060;-69
2023/06/11 23:06:54;;;;;;;3.95;3.22;;;;;;;16.66;46.12;98007.06;10551828;28;20055;-69
2023/06/11 23:12:15;;;;;;;6.53;3.30;;;;;;;16.56;46.46;97998.84;10537396;28;20393;-69
2023/06/11 23:17:36;;;;;;;6.28;3.13;;;;;;;16.53;46.95;98005.03;10566975;28;20074;-69
2023/06/11 23:22:57;;;;;;;5.80;3.30;;;;;;;16.43;46.75;97994.00;10517069;28;20082;-69
2023/06/11 23:28:18;;;;;;;9.38;3.15;;;;;;;16.39;47.14;98001.50;10530889;28;20044;-68
2023/06/11 23:33:39;;;;;;;5.57;3.00;;;;;;;16.31;47.23;97994.16;10545911;28;20068;-68
2023/06/11 23:39:00;;;;;;;7.60;2.90;;;;;;;16.27;48.12;97999.56;10516453;28;20044;-69
2023/06/11 23:44:20;;;;;;;6.35;3.08;;;;;;;16.23;47.77;97993.75;10530348;28;20051;-68
2023/06/11 23:49:41;;;;;;;5.45;3.20;;;;;;;16.20;47.92;97997.06;10529860;28;20036;-68
2023/06/11 23:55:03;;;;;;;4.82;3.10;;;;;;;16.22;48.22;98009.19;10516000;28;20044;-69
